KKB525 KACJ-KTMA
Flight info
| Callsign | KKB525 |
|---|---|
| Flight time | 0h 22m |
| Altitude | 6000 |
| Route | PZD |
| Aircraft | BE58/L-SDFGRY/C |
Departure
| Time | 2026-05-07 22:50 |
|---|---|
| Airport | Jimmy Carter Regional Airport (KACJ) |
Arrival
| Time | 2026-05-07 23:12 |
|---|---|
| Airport | Henry Tift Myers Airport (KTMA) |
| Time | Latitude | Longitude | Altitude | Speed | Heading |
|---|---|---|---|---|---|
| 2026-05-07 22:42 | 32.11059 | -84.18541 | 457 ft | 0 kts | 94° |
| 2026-05-07 22:45 | 32.11058 | -84.18539 | 457 ft | 0 kts | 93° |
| 2026-05-07 22:46 | 32.11075 | -84.18519 | 457 ft | 9 kts | 11° |
| 2026-05-07 22:47 | 32.11123 | -84.18494 | 458 ft | 5 kts | 97° |
| 2026-05-07 22:47 | 32.11121 | -84.18449 | 457 ft | 6 kts | 89° |
| 2026-05-07 22:47 | 32.11121 | -84.18394 | 456 ft | 7 kts | 91° |
| 2026-05-07 22:47 | 32.11121 | -84.18337 | 456 ft | 5 kts | 44° |
| 2026-05-07 22:48 | 32.11131 | -84.18332 | 456 ft | 0 kts | 10° |
| 2026-05-07 22:49 | 32.11160 | -84.18330 | 456 ft | 8 kts | 357° |
| 2026-05-07 22:49 | 32.11174 | -84.18433 | 458 ft | 19 kts | 280° |
| 2026-05-07 22:49 | 32.11182 | -84.18570 | 459 ft | 15 kts | 270° |
| 2026-05-07 22:49 | 32.11103 | -84.18736 | 458 ft | 53 kts | 227° |
| 2026-05-07 22:50 | 32.10720 | -84.19209 | 552 ft | 92 kts | 226° |
| 2026-05-07 22:50 | 32.10255 | -84.19750 | 904 ft | 98 kts | 227° |
| 2026-05-07 22:50 | 32.09767 | -84.20304 | 1290 ft | 99 kts | 228° |
| 2026-05-07 22:50 | 32.09207 | -84.20779 | 1679 ft | 104 kts | 207° |
| 2026-05-07 22:51 | 32.08507 | -84.20978 | 2012 ft | 104 kts | 202° |
| 2026-05-07 22:51 | 32.07799 | -84.21141 | 2316 ft | 103 kts | 202° |
| 2026-05-07 22:51 | 32.07090 | -84.21293 | 2606 ft | 103 kts | 204° |
| 2026-05-07 22:51 | 32.06388 | -84.21437 | 2866 ft | 103 kts | 205° |
| 2026-05-07 22:52 | 32.05680 | -84.21579 | 3131 ft | 103 kts | 205° |
| 2026-05-07 22:52 | 32.04975 | -84.21717 | 3388 ft | 103 kts | 206° |
| 2026-05-07 22:52 | 32.04253 | -84.21860 | 3629 ft | 107 kts | 203° |
| 2026-05-07 22:52 | 32.03507 | -84.22007 | 3922 ft | 109 kts | 202° |
| 2026-05-07 22:53 | 32.02756 | -84.22150 | 4208 ft | 110 kts | 204° |
| 2026-05-07 22:53 | 32.01984 | -84.22302 | 4459 ft | 115 kts | 204° |
| 2026-05-07 22:53 | 32.01194 | -84.22455 | 4754 ft | 116 kts | 204° |
| 2026-05-07 22:53 | 32.00379 | -84.22613 | 5000 ft | 122 kts | 204° |
| 2026-05-07 22:54 | 31.99473 | -84.22799 | 5023 ft | 142 kts | 202° |
| 2026-05-07 22:54 | 31.98449 | -84.22995 | 5123 ft | 151 kts | 202° |
| 2026-05-07 22:54 | 31.97390 | -84.23195 | 5257 ft | 155 kts | 201° |
| 2026-05-07 22:54 | 31.96317 | -84.23399 | 5404 ft | 157 kts | 201° |
| 2026-05-07 22:55 | 31.95234 | -84.23607 | 5550 ft | 158 kts | 201° |
| 2026-05-07 22:55 | 31.94140 | -84.23816 | 5700 ft | 158 kts | 202° |
| 2026-05-07 22:55 | 31.93054 | -84.24024 | 5841 ft | 158 kts | 201° |
| 2026-05-07 22:55 | 31.91950 | -84.24239 | 5935 ft | 162 kts | 201° |
| 2026-05-07 22:56 | 31.90832 | -84.24455 | 6025 ft | 165 kts | 201° |
| 2026-05-07 22:56 | 31.89658 | -84.24682 | 6005 ft | 171 kts | 200° |
| 2026-05-07 22:56 | 31.88478 | -84.24908 | 6003 ft | 172 kts | 200° |
| 2026-05-07 22:56 | 31.87288 | -84.25136 | 6005 ft | 174 kts | 201° |
| 2026-05-07 22:57 | 31.86044 | -84.25115 | 6006 ft | 192 kts | 172° |
| 2026-05-07 22:57 | 31.84899 | -84.24192 | 6009 ft | 209 kts | 142° |
| 2026-05-07 22:57 | 31.83981 | -84.22869 | 6001 ft | 213 kts | 133° |
| 2026-05-07 22:57 | 31.83133 | -84.21426 | 5996 ft | 213 kts | 130° |
| 2026-05-07 22:58 | 31.82317 | -84.19968 | 6002 ft | 214 kts | 130° |
| 2026-05-07 22:58 | 31.81507 | -84.18501 | 5994 ft | 214 kts | 130° |
| 2026-05-07 22:58 | 31.80707 | -84.17045 | 5999 ft | 213 kts | 130° |
| 2026-05-07 22:58 | 31.79902 | -84.15582 | 6005 ft | 213 kts | 130° |
| 2026-05-07 22:59 | 31.79093 | -84.14111 | 6007 ft | 213 kts | 129° |
| 2026-05-07 22:59 | 31.78285 | -84.12642 | 6009 ft | 214 kts | 129° |
| 2026-05-07 22:59 | 31.77479 | -84.11177 | 6007 ft | 214 kts | 130° |
| 2026-05-07 22:59 | 31.76677 | -84.09721 | 6007 ft | 214 kts | 130° |
| 2026-05-07 23:00 | 31.75866 | -84.08247 | 6005 ft | 214 kts | 130° |
| 2026-05-07 23:00 | 31.75062 | -84.06787 | 6002 ft | 214 kts | 130° |
| 2026-05-07 23:00 | 31.74256 | -84.05327 | 6005 ft | 213 kts | 130° |
| 2026-05-07 23:00 | 31.73440 | -84.03865 | 6003 ft | 213 kts | 131° |
| 2026-05-07 23:01 | 31.72799 | -84.02270 | 6001 ft | 217 kts | 116° |
| 2026-05-07 23:01 | 31.72268 | -84.00597 | 6007 ft | 218 kts | 115° |
| 2026-05-07 23:01 | 31.71749 | -83.98942 | 6006 ft | 218 kts | 115° |
| 2026-05-07 23:01 | 31.71225 | -83.97271 | 5997 ft | 218 kts | 115° |
| 2026-05-07 23:02 | 31.70703 | -83.95602 | 6000 ft | 218 kts | 115° |
| 2026-05-07 23:02 | 31.70176 | -83.93925 | 6006 ft | 218 kts | 115° |
| 2026-05-07 23:02 | 31.69654 | -83.92260 | 6005 ft | 218 kts | 115° |
| 2026-05-07 23:02 | 31.69129 | -83.90590 | 5993 ft | 218 kts | 115° |
| 2026-05-07 23:03 | 31.68616 | -83.88953 | 5878 ft | 212 kts | 115° |
| 2026-05-07 23:03 | 31.68104 | -83.87325 | 5728 ft | 210 kts | 116° |
| 2026-05-07 23:03 | 31.67595 | -83.85713 | 5526 ft | 211 kts | 115° |
| 2026-05-07 23:03 | 31.67087 | -83.84096 | 5326 ft | 212 kts | 115° |
| 2026-05-07 23:04 | 31.66576 | -83.82471 | 5119 ft | 211 kts | 115° |
| 2026-05-07 23:04 | 31.66068 | -83.80859 | 4921 ft | 211 kts | 115° |
| 2026-05-07 23:04 | 31.65563 | -83.79256 | 4716 ft | 210 kts | 115° |
| 2026-05-07 23:04 | 31.65058 | -83.77655 | 4518 ft | 209 kts | 115° |
| 2026-05-07 23:05 | 31.64558 | -83.76070 | 4320 ft | 208 kts | 115° |
| 2026-05-07 23:05 | 31.64057 | -83.74482 | 4119 ft | 208 kts | 115° |
| 2026-05-07 23:05 | 31.63552 | -83.72881 | 3934 ft | 208 kts | 115° |
| 2026-05-07 23:05 | 31.63052 | -83.71300 | 3747 ft | 208 kts | 115° |
| 2026-05-07 23:06 | 31.62551 | -83.69718 | 3555 ft | 207 kts | 115° |
| 2026-05-07 23:06 | 31.62050 | -83.68134 | 3362 ft | 206 kts | 115° |
| 2026-05-07 23:06 | 31.61555 | -83.66569 | 3183 ft | 206 kts | 115° |
| 2026-05-07 23:06 | 31.61059 | -83.65003 | 3007 ft | 205 kts | 115° |
| 2026-05-07 23:07 | 31.60559 | -83.63424 | 2832 ft | 203 kts | 114° |
| 2026-05-07 23:07 | 31.60072 | -83.61886 | 2655 ft | 202 kts | 115° |
| 2026-05-07 23:07 | 31.59294 | -83.60591 | 2446 ft | 189 kts | 149° |
| 2026-05-07 23:07 | 31.58192 | -83.59755 | 2276 ft | 185 kts | 156° |
| 2026-05-07 23:08 | 31.57097 | -83.58989 | 2102 ft | 184 kts | 156° |
| 2026-05-07 23:08 | 31.56028 | -83.58241 | 2236 ft | 163 kts | 156° |
| 2026-05-07 23:08 | 31.55033 | -83.57552 | 1994 ft | 174 kts | 156° |
| 2026-05-07 23:08 | 31.54022 | -83.56851 | 2015 ft | 165 kts | 157° |
| 2026-05-07 23:09 | 31.53046 | -83.56172 | 2019 ft | 159 kts | 157° |
| 2026-05-07 23:09 | 31.52106 | -83.55521 | 2024 ft | 154 kts | 157° |
| 2026-05-07 23:09 | 31.51193 | -83.54887 | 1991 ft | 148 kts | 158° |
| 2026-05-07 23:09 | 31.50356 | -83.54286 | 1834 ft | 138 kts | 157° |
| 2026-05-07 23:10 | 31.49543 | -83.53722 | 1664 ft | 131 kts | 158° |
| 2026-05-07 23:10 | 31.48769 | -83.53189 | 1503 ft | 129 kts | 157° |
| 2026-05-07 23:10 | 31.48004 | -83.52661 | 1340 ft | 126 kts | 156° |
| 2026-05-07 23:10 | 31.47248 | -83.52141 | 1174 ft | 125 kts | 155° |
| 2026-05-07 23:11 | 31.46499 | -83.51623 | 1015 ft | 124 kts | 155° |
| 2026-05-07 23:11 | 31.45769 | -83.51120 | 856 ft | 120 kts | 155° |
| 2026-05-07 23:11 | 31.45062 | -83.50633 | 699 ft | 117 kts | 154° |
| 2026-05-07 23:11 | 31.44365 | -83.50152 | 548 ft | 116 kts | 154° |
| 2026-05-07 23:12 | 31.43679 | -83.49685 | 373 ft | 110 kts | 153° |
| 2026-05-07 23:12 | 31.43105 | -83.49285 | 346 ft | 64 kts | 153° |
| 2026-05-07 23:12 | 31.42819 | -83.49236 | 348 ft | 32 kts | 237° |
| 2026-05-07 23:12 | 31.42847 | -83.49372 | 348 ft | 18 kts | 338° |
| 2026-05-07 23:13 | 31.42916 | -83.49423 | 348 ft | 2 kts | 229° |
| 2026-05-07 23:13 | 31.42908 | -83.49420 | 348 ft | 0 kts | 150° |